createdAt,value
2023-04-27T00:01:37.653Z,8.30
2023-04-27T00:04:04.700Z,8.30
2023-04-27T00:06:32.812Z,8.20
2023-04-27T00:08:59.708Z,8.10
2023-04-27T00:11:26.566Z,8.10
2023-04-27T00:13:53.316Z,8.00
2023-04-27T00:16:20.166Z,8.00
2023-04-27T00:18:47.047Z,7.90
2023-04-27T00:21:13.806Z,7.90
2023-04-27T00:23:40.680Z,7.80
2023-04-27T00:26:07.537Z,7.70
2023-04-27T00:28:34.298Z,7.70
2023-04-27T00:31:03.527Z,7.60
2023-04-27T00:33:30.452Z,7.60
2023-04-27T00:36:01.578Z,7.50
2023-04-27T00:38:29.138Z,7.50
2023-04-27T00:41:03.216Z,7.40
2023-04-27T00:43:30.059Z,7.40
2023-04-27T00:45:56.929Z,7.30
2023-04-27T00:48:24.486Z,7.20
2023-04-27T00:50:51.367Z,7.20
2023-04-27T00:53:18.781Z,7.00
2023-04-27T00:55:45.721Z,6.90
2023-04-27T00:58:12.474Z,6.90
2023-04-27T01:00:40.159Z,6.80
2023-04-27T01:03:07.725Z,6.70
2023-04-27T01:05:35.121Z,6.70
2023-04-27T01:08:03.168Z,6.60
2023-04-27T01:10:29.917Z,6.50
2023-04-27T01:12:57.542Z,6.50
2023-04-27T01:15:24.331Z,6.50
2023-04-27T01:17:57.975Z,6.30
2023-04-27T01:20:24.796Z,6.30
2023-04-27T01:22:51.609Z,6.30
2023-04-27T01:25:20.212Z,6.30
2023-04-27T01:27:46.935Z,6.20
2023-04-27T01:30:13.871Z,6.10
2023-04-27T01:32:40.717Z,6.10
2023-04-27T01:35:07.951Z,6.00
2023-04-27T01:37:35.691Z,6.00
2023-04-27T01:40:03.297Z,6.00
2023-04-27T01:42:30.041Z,5.90
2023-04-27T01:44:56.813Z,5.90
2023-04-27T01:47:23.584Z,5.90
2023-04-27T01:49:51.234Z,5.90
2023-04-27T01:52:18.011Z,5.80
2023-04-27T01:54:44.775Z,5.80
2023-04-27T01:57:11.938Z,5.80
2023-04-27T01:59:38.677Z,5.70
2023-04-27T02:02:05.481Z,5.70
2023-04-27T02:04:32.510Z,5.70
2023-04-27T02:06:59.384Z,5.60
2023-04-27T02:09:26.163Z,5.60
2023-04-27T02:11:52.962Z,5.60
2023-04-27T02:14:19.702Z,5.50
2023-04-27T02:16:46.512Z,5.50
2023-04-27T02:19:13.423Z,5.40
2023-04-27T02:21:41.063Z,5.40
2023-04-27T02:24:07.881Z,5.40
2023-04-27T02:26:34.695Z,5.30
2023-04-27T02:29:01.758Z,5.30
2023-04-27T02:31:29.289Z,5.20
2023-04-27T02:33:56.416Z,5.20
2023-04-27T02:36:23.166Z,5.10
2023-04-27T02:38:49.930Z,5.10
2023-04-27T02:41:16.666Z,5.10
2023-04-27T02:43:43.431Z,5.10
2023-04-27T02:46:10.297Z,5.10
2023-04-27T02:48:37.152Z,5.00
2023-04-27T02:51:04.756Z,5.00
2023-04-27T02:53:31.526Z,5.00
2023-04-27T02:55:59.224Z,5.00
2023-04-27T02:58:26.217Z,5.00
2023-04-27T03:00:56.556Z,5.00
2023-04-27T03:03:24.026Z,5.00
2023-04-27T03:05:50.935Z,4.90
2023-04-27T03:08:17.711Z,4.90
2023-04-27T03:10:44.521Z,4.90
2023-04-27T03:13:11.357Z,4.90
2023-04-27T03:15:38.183Z,4.80
2023-04-27T03:18:05.359Z,4.80
2023-04-27T03:20:32.165Z,4.80
2023-04-27T03:22:58.934Z,4.80
2023-04-27T03:25:26.134Z,4.80
2023-04-27T03:27:52.923Z,4.70
2023-04-27T03:30:19.745Z,4.70
2023-04-27T03:32:47.709Z,4.60
2023-04-27T03:35:14.910Z,4.60
2023-04-27T03:37:41.665Z,4.60
2023-04-27T03:40:08.982Z,4.60
2023-04-27T03:42:35.769Z,4.50
2023-04-27T03:45:02.544Z,4.50
2023-04-27T03:47:29.398Z,4.50
2023-04-27T03:49:56.389Z,4.50
2023-04-27T03:52:23.122Z,4.50
2023-04-27T03:54:50.165Z,4.50
2023-04-27T03:57:16.877Z,4.50
2023-04-27T03:59:43.589Z,4.40
2023-04-27T04:02:11.656Z,4.50
2023-04-27T04:04:38.900Z,4.50
2023-04-27T04:07:06.018Z,4.50
2023-04-27T04:09:32.804Z,4.40
2023-04-27T04:11:59.593Z,4.40
2023-04-27T04:14:27.885Z,4.40
2023-04-27T04:16:54.638Z,4.40
2023-04-27T04:19:22.221Z,4.40
2023-04-27T04:21:49.144Z,4.30
2023-04-27T04:24:16.069Z,4.30
2023-04-27T04:26:42.825Z,4.30
2023-04-27T04:29:11.203Z,4.30
2023-04-27T04:31:38.277Z,4.30
2023-04-27T04:34:05.140Z,4.30
2023-04-27T04:36:32.098Z,4.20
2023-04-27T04:38:59.204Z,4.20
2023-04-27T04:41:26.116Z,4.20
2023-04-27T04:43:52.896Z,4.20
2023-04-27T04:46:20.142Z,4.20
2023-04-27T04:48:47.143Z,4.10
2023-04-27T04:51:13.974Z,4.10
2023-04-27T04:53:40.825Z,4.10
2023-04-27T04:56:12.059Z,4.00
2023-04-27T04:58:39.131Z,4.10
2023-04-27T05:01:06.793Z,4.00
2023-04-27T05:03:33.937Z,4.00
2023-04-27T05:06:01.097Z,4.00
2023-04-27T05:08:27.913Z,4.00
2023-04-27T05:10:54.964Z,4.00
2023-04-27T05:13:22.380Z,4.00
2023-04-27T05:15:49.147Z,4.10
2023-04-27T05:18:16.081Z,4.00
2023-04-27T05:20:42.902Z,4.10
2023-04-27T05:23:09.721Z,4.10
2023-04-27T05:25:41.940Z,4.10
2023-04-27T05:28:09.856Z,4.10
2023-04-27T05:30:37.197Z,4.10
2023-04-27T05:33:04.411Z,4.20
2023-04-27T05:35:31.956Z,4.30
2023-04-27T05:37:58.846Z,4.30
2023-04-27T05:40:25.790Z,4.50
2023-04-27T05:42:52.576Z,4.50
2023-04-27T05:45:19.807Z,4.50
2023-04-27T05:47:46.643Z,4.50
2023-04-27T05:50:14.049Z,4.50
2023-04-27T05:52:40.831Z,4.50
2023-04-27T05:55:08.300Z,4.60
2023-04-27T05:57:35.249Z,4.60
2023-04-27T06:00:02.794Z,4.70
2023-04-27T06:02:29.670Z,4.70
2023-04-27T06:04:56.660Z,4.80
2023-04-27T06:07:23.438Z,4.80
2023-04-27T06:09:50.555Z,4.80
2023-04-27T06:12:17.276Z,4.80
2023-04-27T06:14:44.032Z,4.80
2023-04-27T06:17:10.879Z,4.90
2023-04-27T06:19:37.680Z,4.90
2023-04-27T06:22:04.543Z,5.00
2023-04-27T06:24:31.398Z,5.00
2023-04-27T06:26:58.272Z,5.00
2023-04-27T06:29:25.015Z,5.10
2023-04-27T06:31:51.900Z,5.10
2023-04-27T06:34:18.642Z,5.10
2023-04-27T06:36:45.697Z,5.30
2023-04-27T06:39:12.709Z,5.30
2023-04-27T06:41:39.645Z,5.30
2023-04-27T06:44:06.706Z,5.30
2023-04-27T06:46:33.570Z,5.30
2023-04-27T06:49:01.614Z,5.40
2023-04-27T06:51:28.428Z,5.50
2023-04-27T06:53:57.290Z,5.60
2023-04-27T06:56:24.120Z,5.50
2023-04-27T06:58:50.978Z,5.50
2023-04-27T07:01:17.737Z,5.70
2023-04-27T07:03:44.668Z,5.70
2023-04-27T07:06:11.634Z,5.80
2023-04-27T07:08:38.418Z,5.90
2023-04-27T07:11:05.243Z,6.00
2023-04-27T07:13:31.970Z,6.10
2023-04-27T07:15:58.857Z,6.10
2023-04-27T07:18:28.031Z,6.10
2023-04-27T07:20:55.191Z,6.20
2023-04-27T07:23:21.987Z,6.20
2023-04-27T07:25:49.522Z,6.30
2023-04-27T07:28:16.366Z,6.30
2023-04-27T07:30:43.166Z,6.40
2023-04-27T07:33:10.053Z,6.50
2023-04-27T07:35:37.204Z,6.50
2023-04-27T07:38:03.972Z,6.60
2023-04-27T07:40:32.756Z,6.70
2023-04-27T07:42:59.885Z,6.80
2023-04-27T07:45:33.542Z,6.80
2023-04-27T07:48:02.010Z,6.90
2023-04-27T07:50:29.968Z,6.90
2023-04-27T07:52:57.047Z,7.10
2023-04-27T07:55:24.637Z,7.10
2023-04-27T07:57:54.852Z,7.10
2023-04-27T08:00:22.333Z,7.20
2023-04-27T08:02:50.220Z,7.40
2023-04-27T08:05:17.674Z,7.50
2023-04-27T08:07:45.387Z,7.60
2023-04-27T08:10:12.842Z,7.70
2023-04-27T08:12:40.967Z,7.90
2023-04-27T08:15:08.366Z,8.10
2023-04-27T08:17:36.435Z,8.30
2023-04-27T08:20:03.928Z,8.50
2023-04-27T08:22:30.662Z,8.70
2023-04-27T08:24:57.421Z,9.00
2023-04-27T08:27:24.246Z,9.20
2023-04-27T08:29:51.612Z,9.10
2023-04-27T08:32:18.376Z,9.10
2023-04-27T08:34:46.502Z,9.20
2023-04-27T08:37:13.349Z,9.40
2023-04-27T08:39:40.680Z,9.70
2023-04-27T08:42:14.256Z,9.90
2023-04-27T08:44:42.018Z,9.90
2023-04-27T08:47:09.564Z,9.90
2023-04-27T08:49:38.620Z,10.10
2023-04-27T08:52:12.579Z,10.30
2023-04-27T08:54:39.392Z,10.40
2023-04-27T08:57:15.827Z,10.50
2023-04-27T08:59:44.642Z,10.40
2023-04-27T09:02:21.476Z,10.40
2023-04-27T09:04:48.590Z,10.40
2023-04-27T09:07:17.618Z,10.40
2023-04-27T09:09:45.234Z,10.40
2023-04-27T09:12:20.383Z,10.40
2023-04-27T09:14:57.508Z,10.40
2023-04-27T09:17:26.230Z,10.50
2023-04-27T09:19:53.303Z,10.60
2023-04-27T09:22:20.110Z,10.70
2023-04-27T09:24:52.210Z,10.80
2023-04-27T09:27:22.915Z,10.90
2023-04-27T09:29:49.663Z,10.90
2023-04-27T09:32:17.958Z,10.90
2023-04-27T09:34:44.965Z,11.00
2023-04-27T09:37:12.265Z,11.00
2023-04-27T09:39:39.184Z,11.10
2023-04-27T09:42:06.236Z,11.30
2023-04-27T09:44:33.420Z,11.50
2023-04-27T09:47:00.965Z,11.60
2023-04-27T09:49:31.806Z,11.70
2023-04-27T09:51:59.004Z,11.70
2023-04-27T09:54:28.813Z,11.80
2023-04-27T09:57:02.408Z,11.90
2023-04-27T09:59:37.267Z,11.90
2023-04-27T10:02:17.146Z,11.90
2023-04-27T10:05:11.960Z,12.00
2023-04-27T10:07:40.782Z,12.10
2023-04-27T10:10:17.191Z,12.20
2023-04-27T10:12:45.554Z,12.20
2023-04-27T10:15:16.788Z,12.30
2023-04-27T10:17:50.941Z,12.30
2023-04-27T10:20:17.966Z,12.40
2023-04-27T10:22:46.720Z,12.50
2023-04-27T10:25:14.966Z,12.50
2023-04-27T10:27:41.757Z,12.50
2023-04-27T10:30:12.413Z,12.60
2023-04-27T10:32:51.550Z,12.60
2023-04-27T10:35:19.345Z,12.70
2023-04-27T10:37:47.625Z,12.90
2023-04-27T10:40:15.149Z,13.00
2023-04-27T10:42:42.257Z,13.00
2023-04-27T10:45:09.479Z,13.00
2023-04-27T10:47:38.706Z,13.10
2023-04-27T10:50:07.305Z,13.10
2023-04-27T10:52:34.203Z,13.10
2023-04-27T10:55:34.365Z,13.20
2023-04-27T10:58:02.047Z,13.30
2023-04-27T11:00:37.700Z,13.40
2023-04-27T11:03:14.402Z,13.50
2023-04-27T11:05:42.839Z,13.60
2023-04-27T11:08:12.411Z,13.60
2023-04-27T11:10:41.215Z,13.70
2023-04-27T11:13:15.689Z,13.70
2023-04-27T11:15:43.625Z,13.80
2023-04-27T11:18:10.910Z,13.90
2023-04-27T11:20:37.647Z,13.90
2023-04-27T11:23:04.511Z,14.00
2023-04-27T11:25:31.308Z,14.00
2023-04-27T11:27:58.097Z,14.10
2023-04-27T11:30:24.861Z,14.20
2023-04-27T11:32:51.661Z,14.20
2023-04-27T11:35:18.534Z,14.30
2023-04-27T11:37:45.551Z,14.30
2023-04-27T11:40:15.712Z,14.50
2023-04-27T11:42:47.903Z,14.50
2023-04-27T11:45:14.636Z,14.60
2023-04-27T11:47:46.591Z,14.60
2023-04-27T11:50:13.422Z,14.70
2023-04-27T11:52:40.509Z,14.80
2023-04-27T11:55:10.743Z,14.90
2023-04-27T11:57:38.761Z,15.00
2023-04-27T12:00:14.216Z,15.20
2023-04-27T12:02:42.688Z,15.20
2023-04-27T12:05:10.345Z,15.30
2023-04-27T12:07:37.407Z,15.40
2023-04-27T12:10:04.820Z,15.40
2023-04-27T12:12:32.039Z,15.30
2023-04-27T12:14:58.858Z,15.40
2023-04-27T12:17:25.826Z,15.60
2023-04-27T12:19:52.647Z,15.70
2023-04-27T12:22:20.580Z,15.80
2023-04-27T12:24:48.040Z,15.90
2023-04-27T12:27:14.887Z,15.90
2023-04-27T12:29:41.692Z,16.00
2023-04-27T12:32:08.555Z,16.20
2023-04-27T12:34:35.401Z,16.30
2023-04-27T12:37:02.160Z,16.40
2023-04-27T12:39:29.246Z,16.50
2023-04-27T12:41:56.281Z,16.60
2023-04-27T12:44:23.098Z,16.70
2023-04-27T12:46:50.632Z,16.60
2023-04-27T12:49:18.103Z,16.50
2023-04-27T12:51:46.733Z,16.70
2023-04-27T12:54:13.865Z,16.90
2023-04-27T12:56:41.928Z,17.00
2023-04-27T12:59:08.884Z,17.20
2023-04-27T13:01:35.736Z,17.20
2023-04-27T13:04:04.025Z,17.20
2023-04-27T13:06:32.068Z,17.40
2023-04-27T13:08:59.648Z,17.40
2023-04-27T13:11:26.780Z,17.60
2023-04-27T13:13:54.931Z,17.70
2023-04-27T13:16:25.060Z,17.90
2023-04-27T13:18:53.304Z,18.00
2023-04-27T13:21:20.490Z,18.10
2023-04-27T13:23:48.043Z,18.00
2023-04-27T13:26:15.846Z,18.10
2023-04-27T13:28:43.051Z,18.30
2023-04-27T13:31:10.297Z,18.40
2023-04-27T13:33:41.423Z,18.40
2023-04-27T13:36:09.390Z,18.40
2023-04-27T13:38:36.330Z,18.60
2023-04-27T13:41:03.804Z,18.70
2023-04-27T13:43:31.300Z,18.80
2023-04-27T13:46:01.082Z,18.80
2023-04-27T13:48:28.757Z,18.80
2023-04-27T13:50:55.932Z,18.90
2023-04-27T13:53:26.487Z,19.30
2023-04-27T13:55:54.700Z,19.20
2023-04-27T13:58:22.761Z,19.20
2023-04-27T14:00:52.837Z,19.20
2023-04-27T14:03:20.147Z,19.10
2023-04-27T14:05:48.960Z,19.30
2023-04-27T14:08:15.932Z,19.30
2023-04-27T14:10:45.129Z,19.30
2023-04-27T14:13:12.483Z,19.40
2023-04-27T14:15:39.229Z,19.60
2023-04-27T14:18:07.688Z,19.60
2023-04-27T14:20:35.885Z,19.80
2023-04-27T14:23:04.321Z,20.00
2023-04-27T14:25:32.737Z,20.20
2023-04-27T14:28:01.451Z,20.00
2023-04-27T14:30:28.705Z,20.10
2023-04-27T14:32:55.929Z,20.20
2023-04-27T14:35:23.801Z,20.20
2023-04-27T14:37:52.061Z,20.20
2023-04-27T14:40:19.553Z,20.20
2023-04-27T14:42:47.042Z,20.00
2023-04-27T14:45:13.965Z,19.90
2023-04-27T14:47:40.821Z,19.90
2023-04-27T14:50:08.346Z,19.90
2023-04-27T14:52:35.124Z,19.80
2023-04-27T14:55:01.923Z,19.70
2023-04-27T14:57:28.745Z,19.70
2023-04-27T14:59:56.924Z,19.80
2023-04-27T15:02:23.841Z,19.80
2023-04-27T15:04:50.801Z,19.90
2023-04-27T15:07:20.116Z,20.00
2023-04-27T15:09:46.962Z,20.00
2023-04-27T15:12:13.756Z,20.10
2023-04-27T15:14:40.828Z,20.20
2023-04-27T15:17:07.882Z,20.10
2023-04-27T15:19:34.700Z,20.10
2023-04-27T15:22:01.769Z,20.10
2023-04-27T15:24:28.630Z,20.00
2023-04-27T15:26:55.455Z,20.00
2023-04-27T15:29:22.190Z,20.10
2023-04-27T15:31:49.041Z,20.10
2023-04-27T15:34:16.113Z,20.20
2023-04-27T15:36:42.858Z,20.20
2023-04-27T15:39:10.245Z,20.00
2023-04-27T15:41:37.275Z,20.20
2023-04-27T15:44:05.259Z,20.40
2023-04-27T15:46:32.164Z,20.30
2023-04-27T15:48:58.956Z,20.30
2023-04-27T15:51:26.686Z,20.00
2023-04-27T15:53:53.475Z,20.00
2023-04-27T15:56:20.360Z,20.00
2023-04-27T15:58:47.198Z,20.00
2023-04-27T16:01:14.017Z,19.90
2023-04-27T16:03:41.068Z,19.70
2023-04-27T16:06:08.000Z,19.60
2023-04-27T16:08:34.768Z,19.60
2023-04-27T16:11:01.523Z,19.60
2023-04-27T16:13:28.589Z,19.60
2023-04-27T16:15:55.970Z,19.50
2023-04-27T16:18:23.117Z,19.40
2023-04-27T16:20:49.936Z,19.40
2023-04-27T16:23:17.124Z,19.30
2023-04-27T16:25:43.877Z,19.30
2023-04-27T16:28:10.655Z,19.20
2023-04-27T16:30:38.183Z,19.10
2023-04-27T16:33:05.018Z,19.00
2023-04-27T16:35:33.531Z,18.90
2023-04-27T16:38:00.424Z,19.00
2023-04-27T16:40:27.236Z,19.00
2023-04-27T16:42:54.012Z,18.90
2023-04-27T16:45:21.059Z,18.90
2023-04-27T16:47:47.916Z,18.70
2023-04-27T16:50:14.720Z,18.60
2023-04-27T16:52:41.564Z,18.80
2023-04-27T16:55:09.198Z,18.90
2023-04-27T16:57:36.129Z,18.80
2023-04-27T17:00:05.806Z,18.80
2023-04-27T17:02:32.736Z,18.70
2023-04-27T17:05:00.688Z,18.60
2023-04-27T17:07:32.811Z,18.70
2023-04-27T17:09:59.859Z,18.60
2023-04-27T17:12:26.822Z,18.70
2023-04-27T17:14:53.658Z,18.70
2023-04-27T17:17:20.512Z,18.60
2023-04-27T17:19:47.280Z,18.60
2023-04-27T17:22:14.913Z,18.40
2023-04-27T17:24:41.731Z,18.30
2023-04-27T17:27:08.602Z,18.30
2023-04-27T17:29:35.395Z,18.20
2023-04-27T17:32:02.229Z,18.10
2023-04-27T17:34:29.082Z,18.20
2023-04-27T17:36:55.811Z,18.40
2023-04-27T17:39:25.029Z,18.20
2023-04-27T17:41:51.796Z,18.20
2023-04-27T17:44:18.553Z,18.00
2023-04-27T17:46:48.372Z,17.80
2023-04-27T17:49:16.922Z,17.80
2023-04-27T17:51:47.049Z,17.80
2023-04-27T17:54:13.865Z,17.90
2023-04-27T17:56:40.688Z,17.90
2023-04-27T17:59:07.821Z,17.90
2023-04-27T18:01:34.908Z,17.90
2023-04-27T18:04:04.300Z,17.90
2023-04-27T18:06:32.115Z,17.80
2023-04-27T18:08:58.981Z,17.70
2023-04-27T18:11:25.854Z,17.60
2023-04-27T18:13:54.316Z,17.50
2023-04-27T18:16:21.225Z,17.40
2023-04-27T18:18:48.040Z,17.40
2023-04-27T18:21:14.788Z,17.30
2023-04-27T18:23:42.609Z,17.30
2023-04-27T18:26:11.522Z,17.20
2023-04-27T18:28:40.143Z,17.10
2023-04-27T18:31:17.089Z,17.00
2023-04-27T18:33:44.792Z,16.90
2023-04-27T18:36:11.762Z,16.90
2023-04-27T18:38:38.710Z,16.70
2023-04-27T18:41:05.697Z,16.60
2023-04-27T18:43:35.112Z,16.60
2023-04-27T18:46:02.103Z,16.70
2023-04-27T18:48:28.903Z,16.70
2023-04-27T18:50:55.788Z,16.60
2023-04-27T18:53:22.671Z,16.60
2023-04-27T18:55:49.457Z,16.50
2023-04-27T18:58:16.293Z,16.40
2023-04-27T19:00:43.138Z,16.30
2023-04-27T19:03:10.095Z,16.20
2023-04-27T19:05:42.363Z,16.10
2023-04-27T19:08:09.974Z,16.10
2023-04-27T19:10:36.929Z,16.10
2023-04-27T19:13:03.926Z,16.00
2023-04-27T19:15:31.011Z,15.90
2023-04-27T19:18:02.720Z,15.80
2023-04-27T19:20:37.215Z,15.80
2023-04-27T19:23:05.127Z,15.70
2023-04-27T19:25:32.046Z,15.60
2023-04-27T19:27:59.062Z,15.50
2023-04-27T19:30:25.906Z,15.40
2023-04-27T19:32:52.811Z,15.30
2023-04-27T19:35:20.485Z,15.30
2023-04-27T19:37:47.350Z,15.20
2023-04-27T19:40:14.988Z,15.20
2023-04-27T19:42:41.799Z,15.10
2023-04-27T19:45:08.696Z,15.10
2023-04-27T19:47:36.072Z,15.00
2023-04-27T19:50:03.907Z,15.00
2023-04-27T19:52:30.703Z,14.90
2023-04-27T19:54:57.854Z,14.90
2023-04-27T19:57:24.640Z,14.90
2023-04-27T19:59:51.471Z,14.80
2023-04-27T20:02:18.389Z,14.80
2023-04-27T20:04:45.454Z,14.70
2023-04-27T20:07:12.628Z,14.70
2023-04-27T20:09:39.394Z,14.70
2023-04-27T20:12:07.364Z,14.60
2023-04-27T20:14:37.643Z,14.60
2023-04-27T20:17:05.245Z,14.50
2023-04-27T20:19:32.329Z,14.50
2023-04-27T20:22:00.410Z,14.50
2023-04-27T20:24:29.128Z,14.40
2023-04-27T20:26:55.939Z,14.40
2023-04-27T20:29:22.745Z,14.40
2023-04-27T20:31:49.592Z,14.40
2023-04-27T20:34:16.653Z,14.40
2023-04-27T20:36:44.322Z,14.30
2023-04-27T20:39:12.084Z,14.30
2023-04-27T20:41:41.772Z,14.20
2023-04-27T20:44:09.260Z,14.10
2023-04-27T20:46:36.662Z,14.10
2023-04-27T20:49:04.312Z,14.10
2023-04-27T20:51:32.837Z,14.00
2023-04-27T20:53:59.872Z,13.90
2023-04-27T20:56:30.622Z,13.90
2023-04-27T20:58:57.476Z,13.90
2023-04-27T21:01:24.299Z,13.80
2023-04-27T21:03:51.271Z,13.80
2023-04-27T21:06:18.170Z,13.90
2023-04-27T21:08:44.940Z,13.80
2023-04-27T21:11:12.014Z,13.80
2023-04-27T21:13:38.794Z,13.70
2023-04-27T21:16:06.043Z,13.70
2023-04-27T21:18:32.887Z,13.70
2023-04-27T21:20:59.718Z,13.50
2023-04-27T21:23:26.545Z,13.50
2023-04-27T21:25:53.381Z,13.50
2023-04-27T21:28:20.426Z,13.50
2023-04-27T21:30:47.309Z,13.40
2023-04-27T21:33:14.103Z,13.40
2023-04-27T21:35:41.054Z,13.40
2023-04-27T21:38:07.787Z,13.30
2023-04-27T21:40:34.913Z,13.30
2023-04-27T21:43:01.879Z,13.20
2023-04-27T21:45:28.794Z,13.20
2023-04-27T21:47:55.605Z,13.10
2023-04-27T21:50:22.419Z,13.00
2023-04-27T21:52:49.140Z,13.00
2023-04-27T21:55:15.930Z,12.90
2023-04-27T21:57:42.692Z,12.90
2023-04-27T22:00:13.572Z,12.90
2023-04-27T22:02:42.435Z,12.80
2023-04-27T22:05:12.414Z,12.70
2023-04-27T22:07:39.182Z,12.70
2023-04-27T22:10:06.357Z,12.70
2023-04-27T22:12:33.566Z,12.70
2023-04-27T22:15:00.412Z,12.60
2023-04-27T22:17:27.777Z,12.60
2023-04-27T22:19:54.870Z,12.70
2023-04-27T22:22:21.724Z,12.70
2023-04-27T22:24:48.682Z,12.60
2023-04-27T22:27:15.673Z,12.60
2023-04-27T22:29:42.476Z,12.50
2023-04-27T22:32:09.912Z,12.50
2023-04-27T22:34:37.277Z,12.40
2023-04-27T22:37:04.228Z,12.40
2023-04-27T22:39:31.840Z,12.30
2023-04-27T22:41:58.650Z,12.30
2023-04-27T22:44:25.887Z,12.20
2023-04-27T22:46:52.728Z,12.30
2023-04-27T22:49:19.806Z,12.20
2023-04-27T22:51:47.260Z,12.20
2023-04-27T22:54:14.745Z,12.20
2023-04-27T22:56:41.828Z,12.10
2023-04-27T22:59:08.622Z,12.10
2023-04-27T23:01:35.638Z,12.10
2023-04-27T23:04:03.017Z,12.10
2023-04-27T23:06:30.359Z,12.10
2023-04-27T23:08:57.239Z,12.10
2023-04-27T23:11:24.053Z,12.10
2023-04-27T23:13:50.813Z,12.10
2023-04-27T23:16:17.762Z,12.10
2023-04-27T23:18:44.640Z,12.00
2023-04-27T23:21:11.789Z,12.00
2023-04-27T23:23:38.559Z,12.00
2023-04-27T23:26:14.796Z,11.90
2023-04-27T23:28:41.739Z,12.00
2023-04-27T23:31:09.481Z,11.90
2023-04-27T23:33:36.515Z,11.90
2023-04-27T23:36:04.482Z,11.80
2023-04-27T23:38:31.280Z,11.80
2023-04-27T23:40:58.038Z,11.80
2023-04-27T23:43:24.785Z,11.70
2023-04-27T23:45:52.130Z,11.60
2023-04-27T23:48:19.555Z,11.60
2023-04-27T23:50:46.360Z,11.60
2023-04-27T23:53:13.106Z,11.50
2023-04-27T23:55:40.009Z,11.40
2023-04-27T23:58:06.761Z,11.40
